Time;durP1;ratioP1;P1;durP2;ratioP2;P2;SDS_P1;SDS_P2;PMS_P1;PMS_P2;Temp;Humidity;BMP_temperature;BMP_pressure;BME280_temperature;BME280_humidity;BME280_pressure;Samples;Min_cycle;Max_cycle;Signal;HPM_P1;HPM_P2
2022/02/27 00:01:51;;;;;;;15.32;5.15;;;;;;;5.72;53.71;102138.25;5019535;28;20064;-64
2022/02/27 00:04:19;;;;;;;13.85;4.97;;;;;;;5.92;53.13;102136.94;5013830;28;20046;-64
2022/02/27 00:06:46;;;;;;;13.88;4.85;;;;;;;6.01;53.08;102133.56;5010726;28;20057;-63
2022/02/27 00:09:14;;;;;;;15.02;5.22;;;;;;;5.81;53.17;102144.13;5016584;28;20054;-64
2022/02/27 00:11:41;;;;;;;16.48;5.68;;;;;;;5.64;53.81;102135.06;5014066;28;20083;-63
2022/02/27 00:14:11;;;;;;;16.13;5.88;;;;;;;5.58;53.99;102136.03;5010357;28;20525;-63
2022/02/27 00:16:38;;;;;;;15.15;5.05;;;;;;;5.38;54.76;102131.06;5007331;28;20069;-64
2022/02/27 00:19:05;;;;;;;13.07;5.10;;;;;;;5.58;54.11;102130.59;5016827;28;20412;-63
2022/02/27 00:21:33;;;;;;;15.23;5.45;;;;;;;5.56;54.05;102132.75;5021397;28;20049;-64
2022/02/27 00:24:00;;;;;;;22.55;5.47;;;;;;;5.53;54.50;102125.03;5023904;28;20050;-64
2022/02/27 00:26:27;;;;;;;15.55;5.82;;;;;;;5.51;54.20;102129.91;5013876;28;20080;-67
2022/02/27 00:28:55;;;;;;;10.82;5.00;;;;;;;5.45;54.57;102136.38;5010267;28;20042;-64
2022/02/27 00:31:23;;;;;;;15.90;5.18;;;;;;;5.49;54.30;102129.34;5028004;28;20053;-64
2022/02/27 00:33:50;;;;;;;10.95;4.40;;;;;;;5.31;54.56;102132.28;5023386;28;20061;-66
2022/02/27 00:36:18;;;;;;;12.57;5.00;;;;;;;5.15;55.39;102122.13;5023462;28;20050;-64
2022/02/27 00:38:45;;;;;;;14.57;4.72;;;;;;;5.55;54.59;102121.00;5013856;28;20871;-65
2022/02/27 00:41:12;;;;;;;11.82;5.43;;;;;;;5.25;55.06;102125.03;5014736;28;20057;-64
2022/02/27 00:43:41;;;;;;;12.40;5.25;;;;;;;5.31;54.67;102119.44;5019452;28;20070;-64
2022/02/27 00:46:09;;;;;;;12.65;4.93;;;;;;;5.39;55.31;102132.72;5021972;28;20058;-64
2022/02/27 00:48:37;;;;;;;11.25;4.95;;;;;;;5.52;54.50;102137.03;5009175;28;20057;-65
2022/02/27 00:51:05;;;;;;;14.75;5.20;;;;;;;5.31;55.30;102133.13;4998268;28;20072;-64
2022/02/27 00:53:32;;;;;;;12.05;4.72;;;;;;;5.18;55.48;102130.66;5024203;28;20056;-64
2022/02/27 00:55:59;;;;;;;16.50;4.47;;;;;;;5.18;55.70;102140.75;5030093;28;20068;-64
2022/02/27 00:58:27;;;;;;;13.32;5.22;;;;;;;5.30;55.19;102134.16;5028556;28;20050;-65
2022/02/27 01:00:54;;;;;;;10.88;4.93;;;;;;;5.39;55.08;102145.53;5006761;28;20100;-64
2022/02/27 01:03:22;;;;;;;15.80;5.03;;;;;;;5.36;55.12;102135.09;5025079;28;20531;-63
2022/02/27 01:05:50;;;;;;;14.80;4.93;;;;;;;5.58;54.16;102139.63;5031253;28;20396;-66
2022/02/27 01:08:17;;;;;;;15.18;5.15;;;;;;;5.16;55.47;102134.72;5021330;28;20057;-64
2022/02/27 01:10:45;;;;;;;14.07;5.38;;;;;;;5.17;55.81;102142.66;5010036;28;20050;-64
2022/02/27 01:13:13;;;;;;;13.35;5.20;;;;;;;5.20;55.49;102136.72;5006952;28;20066;-65
2022/02/27 01:15:40;;;;;;;17.45;5.38;;;;;;;5.01;56.10;102132.50;5010819;28;20049;-64
2022/02/27 01:18:07;;;;;;;12.80;5.43;;;;;;;5.14;56.16;102134.97;5014520;28;20050;-64
2022/02/27 01:20:35;;;;;;;14.77;4.78;;;;;;;5.27;55.55;102131.94;5004405;28;20512;-65
2022/02/27 01:23:02;;;;;;;12.85;4.80;;;;;;;5.21;55.24;102118.44;5008004;28;20050;-64
2022/02/27 01:25:47;;;;;;;11.40;4.47;;;;;;;5.01;55.60;102115.28;5000608;28;20501;-65
2022/02/27 01:28:15;;;;;;;15.30;4.53;;;;;;;5.27;55.20;102109.25;5014626;28;20390;-65
2022/02/27 01:30:42;;;;;;;16.02;5.20;;;;;;;5.14;55.71;102104.94;5015512;28;20054;-66
2022/02/27 01:33:09;;;;;;;13.50;5.00;;;;;;;5.23;55.71;102114.38;5015245;28;20065;-65
2022/02/27 01:35:38;;;;;;;18.10;5.65;;;;;;;5.33;55.48;102113.75;5002198;28;20050;-64
2022/02/27 01:38:05;;;;;;;14.15;4.95;;;;;;;5.23;55.17;102110.81;5009107;28;20046;-64
2022/02/27 01:40:36;;;;;;;14.88;4.93;;;;;;;5.08;55.44;102108.63;5005270;28;20050;-64
2022/02/27 01:43:03;;;;;;;13.07;4.97;;;;;;;5.13;55.35;102114.19;5015246;28;20049;-64
2022/02/27 01:45:31;;;;;;;11.05;4.90;;;;;;;5.23;55.49;102110.81;5014162;28;20058;-64
2022/02/27 01:47:58;;;;;;;13.93;4.70;;;;;;;5.29;55.21;102104.38;5005976;28;20058;-64
2022/02/27 01:50:26;;;;;;;19.50;4.88;;;;;;;5.20;55.04;102114.03;5007482;28;20060;-68
2022/02/27 01:52:54;;;;;;;14.57;5.07;;;;;;;5.21;54.69;102108.31;5004963;28;20421;-68
2022/02/27 01:55:21;;;;;;;16.88;4.85;;;;;;;4.93;55.49;102110.22;5014850;28;20057;-67
2022/02/27 01:57:49;;;;;;;12.57;4.60;;;;;;;5.11;55.20;102110.84;5004584;28;20065;-67
2022/02/27 02:00:17;;;;;;;15.20;4.60;;;;;;;5.04;55.20;102104.72;5027019;28;20060;-68
2022/02/27 02:02:46;;;;;;;11.90;4.57;;;;;;;5.25;54.88;102104.03;5015166;28;20157;-68
2022/02/27 02:05:15;;;;;;;13.57;4.80;;;;;;;5.11;55.36;102105.38;4964712;28;20049;-67
2022/02/27 02:07:46;;;;;;;18.75;4.88;;;;;;;4.98;55.74;102105.69;5014016;28;20057;-68
2022/02/27 02:10:15;;;;;;;15.70;4.90;;;;;;;4.90;55.98;102116.16;5000604;28;20052;-67
2022/02/27 02:12:54;;;;;;;16.55;4.80;;;;;;;4.88;55.83;102110.13;5006485;28;20050;-68
2022/02/27 02:15:25;;;;;;;15.52;5.05;;;;;;;5.12;54.97;102103.50;5013961;28;20056;-68
2022/02/27 02:17:52;;;;;;;17.13;5.05;;;;;;;4.89;55.62;102100.84;5000820;28;20390;-68
2022/02/27 02:20:21;;;;;;;13.38;4.50;;;;;;;4.67;56.27;102094.38;5001430;28;20069;-67
2022/02/27 02:22:56;;;;;;;19.17;5.07;;;;;;;4.86;56.38;102098.59;5012999;28;20057;-68
2022/02/27 02:25:23;;;;;;;13.32;4.90;;;;;;;4.75;56.61;102085.81;4996496;28;20532;-68
2022/02/27 02:27:56;;;;;;;12.70;4.47;;;;;;;4.72;56.40;102084.41;5009694;28;20075;-68
2022/02/27 02:30:27;;;;;;;17.42;5.05;;;;;;;4.75;56.61;102086.66;5007194;28;20042;-68
2022/02/27 02:32:57;;;;;;;19.83;5.43;;;;;;;4.79;56.33;102081.53;5006835;28;20060;-68
2022/02/27 02:35:26;;;;;;;14.98;4.72;;;;;;;4.84;56.26;102078.91;5021035;28;20060;-68
2022/02/27 02:37:54;;;;;;;16.45;4.93;;;;;;;4.99;55.77;102076.47;5008520;28;20057;-67
2022/02/27 02:40:23;;;;;;;13.75;4.57;;;;;;;4.88;55.66;102069.97;5031800;28;20064;-68
2022/02/27 02:42:52;;;;;;;18.00;5.18;;;;;;;4.85;56.15;102075.09;5017435;28;20062;-69
2022/02/27 02:45:19;;;;;;;12.45;4.50;;;;;;;4.75;55.97;102074.91;5033139;28;20041;-67
2022/02/27 02:47:48;;;;;;;17.35;4.70;;;;;;;4.72;56.05;102068.03;5021200;28;20053;-67
2022/02/27 02:50:21;;;;;;;12.63;4.90;;;;;;;4.65;56.51;102069.22;5027930;28;20057;-67
2022/02/27 02:52:49;;;;;;;13.75;4.60;;;;;;;4.79;56.04;102079.66;5013450;28;20408;-67
2022/02/27 02:55:17;;;;;;;15.48;4.72;;;;;;;4.80;55.99;102084.03;4996736;28;20054;-68
2022/02/27 02:57:48;;;;;;;14.80;4.63;;;;;;;4.62;56.45;102080.63;5013687;28;20053;-68
2022/02/27 03:00:15;;;;;;;14.52;4.25;;;;;;;4.71;56.59;102087.38;5017165;28;20068;-66
2022/02/27 03:02:43;;;;;;;17.85;4.65;;;;;;;4.78;55.66;102085.34;5007551;28;20054;-68
2022/02/27 03:05:10;;;;;;;13.80;4.97;;;;;;;4.58;56.27;102077.56;5026227;28;20053;-65
2022/02/27 03:07:39;;;;;;;13.27;4.72;;;;;;;4.34;56.97;102087.66;5014553;28;20054;-64
2022/02/27 03:10:08;;;;;;;17.58;4.57;;;;;;;4.37;56.81;102076.31;5031333;28;20056;-64
2022/02/27 03:12:39;;;;;;;17.60;5.70;;;;;;;4.57;56.70;102073.16;5032890;28;20061;-64
2022/02/27 03:15:08;;;;;;;16.02;4.68;;;;;;;4.35;56.69;102080.31;5020716;28;20084;-63
2022/02/27 03:17:35;;;;;;;16.13;4.43;;;;;;;4.24;57.29;102075.69;5024581;28;20064;-63
2022/02/27 03:20:06;;;;;;;15.13;4.30;;;;;;;4.10;57.56;102074.28;5017936;28;20045;-68
2022/02/27 03:22:33;;;;;;;15.63;4.20;;;;;;;4.36;57.25;102071.91;5013511;28;20517;-67
2022/02/27 03:25:00;;;;;;;15.00;4.18;;;;;;;4.33;57.27;102079.72;5016563;28;20077;-68
2022/02/27 03:27:28;;;;;;;13.77;4.15;;;;;;;4.33;56.95;102077.00;5017644;28;20041;-67
2022/02/27 03:29:55;;;;;;;13.10;4.90;;;;;;;4.36;57.03;102062.88;5032556;28;20484;-66
2022/02/27 03:32:22;;;;;;;11.32;3.90;;;;;;;4.40;56.82;102073.09;5029144;28;20057;-67
2022/02/27 03:34:49;;;;;;;13.05;4.55;;;;;;;4.45;56.89;102066.91;5031014;28;20057;-67
2022/02/27 03:37:18;;;;;;;12.55;4.03;;;;;;;4.42;56.67;102067.38;5025628;28;20037;-67
2022/02/27 03:39:45;;;;;;;13.50;4.22;;;;;;;4.41;56.37;102061.09;5037282;28;20041;-66
2022/02/27 03:42:14;;;;;;;19.42;5.28;;;;;;;4.36;56.95;102065.59;5036049;28;20057;-67
2022/02/27 03:44:41;;;;;;;18.02;4.65;;;;;;;4.21;56.87;102066.13;5019488;28;20054;-67
2022/02/27 03:47:08;;;;;;;12.65;3.95;;;;;;;4.11;57.67;102075.97;5035467;28;20057;-68
2022/02/27 03:49:36;;;;;;;11.07;4.00;;;;;;;4.28;57.26;102077.72;5035816;28;20065;-67
2022/02/27 03:52:03;;;;;;;13.68;4.47;;;;;;;4.46;56.85;102083.03;5021416;28;20054;-67
2022/02/27 03:54:31;;;;;;;19.67;5.03;;;;;;;4.02;57.41;102082.84;5034921;28;20064;-67
2022/02/27 03:56:58;;;;;;;11.00;4.20;;;;;;;4.09;57.69;102084.38;5025013;28;20050;-67
2022/02/27 03:59:25;;;;;;;13.18;4.30;;;;;;;4.19;57.25;102078.31;5031835;28;20504;-67
2022/02/27 04:01:53;;;;;;;12.75;3.67;;;;;;;4.19;57.38;102083.78;5026401;28;20045;-67
2022/02/27 04:04:21;;;;;;;19.10;4.30;;;;;;;4.67;56.23;102081.59;5033748;28;20056;-67
2022/02/27 04:06:48;;;;;;;15.88;4.30;;;;;;;4.34;56.66;102089.59;5026798;28;20053;-67
2022/02/27 04:09:15;;;;;;;16.17;3.75;;;;;;;3.96;57.60;102079.16;5033828;28;20053;-67
2022/02/27 04:11:43;;;;;;;15.32;4.03;;;;;;;4.04;57.72;102083.44;5026943;28;20058;-67
2022/02/27 04:14:10;;;;;;;16.98;4.07;;;;;;;4.26;57.25;102082.59;5021231;28;20060;-66
2022/02/27 04:16:38;;;;;;;14.88;3.75;;;;;;;4.14;57.11;102072.75;5025568;28;20049;-67
2022/02/27 04:19:07;;;;;;;13.70;3.65;;;;;;;4.49;55.93;102076.28;5033120;28;20053;-67
2022/02/27 04:21:34;;;;;;;18.65;4.10;;;;;;;4.26;56.45;102074.41;5023485;28;20057;-67
2022/02/27 04:24:02;;;;;;;13.90;3.42;;;;;;;4.11;56.88;102082.25;5021688;28;20060;-69
2022/02/27 04:26:29;;;;;;;10.38;3.70;;;;;;;4.07;57.24;102083.78;5022947;28;20054;-67
2022/02/27 04:28:56;;;;;;;16.77;4.38;;;;;;;4.09;57.28;102078.09;5015563;28;20405;-67
2022/02/27 04:31:26;;;;;;;14.90;3.55;;;;;;;4.21;56.75;102078.91;5028988;28;20492;-67
2022/02/27 04:33:53;;;;;;;12.40;3.70;;;;;;;4.20;56.67;102067.16;5036067;28;20068;-67
2022/02/27 04:36:21;;;;;;;13.77;3.95;;;;;;;4.01;56.97;102064.84;5036272;28;20700;-67
2022/02/27 04:38:48;;;;;;;10.80;3.40;;;;;;;3.91;57.23;102068.13;5030131;28;20061;-66
2022/02/27 04:41:18;;;;;;;12.80;3.33;;;;;;;3.83;57.49;102068.50;5018250;28;20118;-66
2022/02/27 04:43:46;;;;;;;14.18;3.65;;;;;;;3.80;57.78;102068.13;5020317;28;20049;-67
2022/02/27 04:46:14;;;;;;;14.18;3.47;;;;;;;3.87;57.59;102075.13;5029678;28;20057;-66
2022/02/27 04:48:41;;;;;;;15.68;4.00;;;;;;;3.74;57.82;102067.19;5023891;28;20072;-67
2022/02/27 04:51:09;;;;;;;10.13;3.10;;;;;;;3.69;57.87;102064.34;5034921;28;20045;-66
2022/02/27 04:53:36;;;;;;;14.88;3.40;;;;;;;3.66;58.23;102062.06;5024164;28;20048;-68
2022/02/27 04:56:04;;;;;;;11.25;3.40;;;;;;;3.88;57.30;102065.88;5022429;28;20057;-67
2022/02/27 04:58:31;;;;;;;14.23;3.55;;;;;;;3.59;58.03;102069.53;5021370;28;20050;-67
2022/02/27 05:01:00;;;;;;;11.75;3.50;;;;;;;3.66;58.00;102062.06;5029285;28;20038;-67
2022/02/27 05:03:28;;;;;;;14.65;3.70;;;;;;;3.73;58.09;102065.50;5030636;28;20053;-67
2022/02/27 05:05:55;;;;;;;11.13;4.20;;;;;;;3.77;57.88;102063.13;5027671;28;20057;-67
2022/02/27 05:08:22;;;;;;;14.63;3.67;;;;;;;3.61;58.27;102069.31;5025136;28;20056;-67
2022/02/27 05:10:50;;;;;;;17.27;3.80;;;;;;;3.74;57.75;102066.34;5022349;28;20060;-67
2022/02/27 05:13:17;;;;;;;10.57;3.33;;;;;;;3.71;57.76;102066.81;5025884;28;20053;-68
2022/02/27 05:15:44;;;;;;;12.50;3.83;;;;;;;3.67;57.84;102073.78;5029058;28;20052;-66
2022/02/27 05:18:12;;;;;;;15.75;4.00;;;;;;;3.60;58.12;102070.34;5005081;28;20532;-69
2022/02/27 05:20:41;;;;;;;17.80;3.93;;;;;;;3.73;57.74;102070.94;5022145;28;20046;-66
2022/02/27 05:23:08;;;;;;;11.95;3.35;;;;;;;3.47;58.19;102074.94;5013934;28;20052;-67
2022/02/27 05:25:35;;;;;;;13.88;3.40;;;;;;;3.43;58.46;102065.56;5018705;28;20054;-67
2022/02/27 05:28:03;;;;;;;14.73;2.85;;;;;;;3.36;58.48;102066.75;5027623;28;20064;-68
2022/02/27 05:30:30;;;;;;;11.80;3.08;;;;;;;3.37;58.67;102066.53;5021018;28;20060;-64
2022/02/27 05:32:57;;;;;;;11.52;3.70;;;;;;;3.29;58.71;102069.59;5023934;28;20046;-63
2022/02/27 05:35:25;;;;;;;17.60;4.05;;;;;;;3.42;58.53;102069.38;5000481;28;20049;-64
2022/02/27 05:37:52;;;;;;;16.27;3.67;;;;;;;3.37;58.65;102068.41;5015827;28;20049;-64
2022/02/27 05:40:19;;;;;;;13.00;3.80;;;;;;;3.31;58.79;102066.63;5027823;28;20042;-65
2022/02/27 05:42:48;;;;;;;12.73;3.80;;;;;;;3.65;58.18;102056.84;5014364;28;20061;-65
2022/02/27 05:45:15;;;;;;;15.95;3.50;;;;;;;3.66;57.87;102062.06;5001018;28;20409;-63
2022/02/27 05:47:42;;;;;;;21.02;4.15;;;;;;;3.60;57.91;102054.84;5028711;28;20141;-64
2022/02/27 05:50:10;;;;;;;11.27;3.22;;;;;;;3.50;57.92;102054.59;5026707;28;20053;-64
2022/02/27 05:52:37;;;;;;;12.00;3.25;;;;;;;3.51;57.92;102052.69;5027287;28;20057;-64
2022/02/27 05:55:05;;;;;;;14.80;3.45;;;;;;;3.36;58.57;102045.78;5033236;28;20500;-63
2022/02/27 05:57:32;;;;;;;13.35;3.97;;;;;;;3.66;58.03;102053.88;5032719;28;20053;-67
2022/02/27 06:00:00;;;;;;;12.88;4.05;;;;;;;3.54;57.78;102053.03;5023089;28;20072;-67
2022/02/27 06:02:28;;;;;;;18.98;5.07;;;;;;;3.63;57.58;102056.28;5019656;28;20137;-68
2022/02/27 06:05:00;;;;;;;10.43;3.67;;;;;;;3.52;58.15;102051.63;5025969;28;20057;-68
2022/02/27 06:07:27;;;;;;;11.90;3.33;;;;;;;3.44;57.69;102060.97;5017751;28;20053;-63
2022/02/27 06:09:55;;;;;;;12.05;3.38;;;;;;;3.72;57.16;102050.22;4987861;28;20073;-64
2022/02/27 06:12:22;;;;;;;12.32;3.22;;;;;;;3.56;57.57;102052.84;5027878;28;20053;-63
2022/02/27 06:14:50;;;;;;;13.80;3.85;;;;;;;3.25;58.20;102052.06;5024560;28;20065;-64
2022/02/27 06:17:17;;;;;;;16.15;3.60;;;;;;;3.43;58.35;102056.59;5018174;28;20053;-63
2022/02/27 06:19:44;;;;;;;12.15;3.50;;;;;;;3.14;58.59;102049.28;5020680;28;20057;-63
2022/02/27 06:22:12;;;;;;;13.25;4.22;;;;;;;3.41;57.97;102056.84;5011140;28;20050;-63
2022/02/27 06:24:39;;;;;;;8.88;3.05;;;;;;;3.40;58.03;102065.22;5012358;28;20505;-64
2022/02/27 06:27:06;;;;;;;15.07;3.33;;;;;;;3.15;58.86;102059.97;5019082;28;20050;-64
2022/02/27 06:29:34;;;;;;;18.80;4.10;;;;;;;3.19;58.82;102063.84;5034772;28;20057;-63
2022/02/27 06:32:02;;;;;;;15.50;3.80;;;;;;;3.24;58.43;102066.72;5030120;28;20516;-64
2022/02/27 06:34:29;;;;;;;11.45;3.40;;;;;;;3.25;58.74;102068.38;5025966;28;20049;-63
2022/02/27 06:36:56;;;;;;;12.45;3.38;;;;;;;3.68;57.36;102061.84;5020161;28;20046;-64
2022/02/27 06:39:24;;;;;;;13.18;3.88;;;;;;;3.37;57.79;102069.25;5025474;28;20060;-63
2022/02/27 06:41:51;;;;;;;12.32;3.70;;;;;;;3.29;58.30;102064.16;5020454;28;20045;-64
2022/02/27 06:44:18;;;;;;;13.43;3.70;;;;;;;3.23;58.07;102069.66;5033096;28;20073;-64
2022/02/27 06:46:46;;;;;;;9.50;3.17;;;;;;;3.29;58.37;102068.75;5021872;28;20052;-65
2022/02/27 06:49:13;;;;;;;10.38;3.35;;;;;;;3.35;58.05;102067.81;5011125;28;20061;-64
2022/02/27 06:51:40;;;;;;;12.93;3.97;;;;;;;3.53;57.37;102047.84;5024272;28;20061;-63
2022/02/27 06:54:08;;;;;;;18.70;4.40;;;;;;;3.48;57.68;102056.72;5035018;28;20057;-64
2022/02/27 06:56:35;;;;;;;11.85;3.60;;;;;;;3.63;57.26;102053.56;5023298;28;20057;-63
2022/02/27 06:59:03;;;;;;;10.07;3.80;;;;;;;3.66;56.72;102053.88;5038065;28;20060;-63
2022/02/27 07:01:30;;;;;;;12.30;3.38;;;;;;;3.76;56.50;102051.44;5024990;28;20512;-64
2022/02/27 07:03:57;;;;;;;11.00;3.47;;;;;;;3.42;57.24;102058.47;5037103;28;20045;-63
2022/02/27 07:06:25;;;;;;;13.25;3.70;;;;;;;3.50;57.37;102056.47;5018296;28;20061;-63
2022/02/27 07:08:53;;;;;;;13.25;3.20;;;;;;;3.67;57.01;102060.16;5016626;28;20528;-64
2022/02/27 07:11:20;;;;;;;15.20;3.30;;;;;;;3.71;56.20;102048.59;5036357;28;20056;-64
2022/02/27 07:13:50;;;;;;;9.68;3.28;;;;;;;3.87;56.28;102055.22;5037639;28;20061;-63
2022/02/27 07:16:22;;;;;;;17.10;3.67;;;;;;;3.66;56.13;102053.88;5022669;28;20135;-64
2022/02/27 07:18:50;;;;;;;11.85;3.42;;;;;;;3.50;56.89;102060.03;5026648;28;20048;-63
2022/02/27 07:21:18;;;;;;;12.05;3.53;;;;;;;3.66;56.45;102056.59;5017447;28;20053;-64
2022/02/27 07:23:45;;;;;;;10.60;3.47;;;;;;;3.64;55.98;102060.66;5016372;28;20407;-63
2022/02/27 07:26:12;;;;;;;13.23;3.63;;;;;;;3.72;55.82;102061.13;5015959;28;20049;-64
2022/02/27 07:28:40;;;;;;;14.05;3.70;;;;;;;3.86;55.52;102053.56;5031017;28;20068;-64
2022/02/27 07:31:07;;;;;;;12.23;4.22;;;;;;;3.74;55.80;102052.72;5017893;28;20049;-64
2022/02/27 07:33:34;;;;;;;12.07;3.50;;;;;;;3.83;55.36;102057.59;5021994;28;20060;-64
2022/02/27 07:36:02;;;;;;;12.07;3.72;;;;;;;3.76;55.20;102053.31;5000948;28;20054;-64
2022/02/27 07:38:29;;;;;;;12.32;3.78;;;;;;;3.77;55.50;102053.06;5002334;28;20513;-67
2022/02/27 07:40:57;;;;;;;11.55;3.25;;;;;;;3.85;55.80;102054.63;5013724;28;20374;-68
2022/02/27 07:43:24;;;;;;;12.18;4.25;;;;;;;3.91;55.40;102056.38;5026165;28;20057;-67
2022/02/27 07:45:51;;;;;;;11.52;3.80;;;;;;;3.72;55.59;102058.41;5027421;28;20412;-67
2022/02/27 07:48:19;;;;;;;14.82;4.25;;;;;;;3.70;55.54;102057.81;5024130;28;20069;-67
2022/02/27 07:50:47;;;;;;;14.23;3.70;;;;;;;3.92;55.14;102061.63;5027555;28;20421;-67
2022/02/27 07:53:14;;;;;;;9.75;4.55;;;;;;;3.82;55.16;102064.09;5017657;28;20053;-68
2022/02/27 07:55:41;;;;;;;15.85;3.92;;;;;;;3.62;55.79;102079.97;5011734;28;20048;-68
2022/02/27 07:58:11;;;;;;;11.05;3.67;;;;;;;3.70;55.76;102067.88;5017782;28;20053;-67
2022/02/27 08:00:38;;;;;;;13.38;4.00;;;;;;;3.76;54.99;102065.06;5027310;28;20065;-68
2022/02/27 08:03:07;;;;;;;16.77;3.45;;;;;;;3.52;55.39;102068.81;5020422;28;20065;-68
2022/02/27 08:05:35;;;;;;;11.68;3.38;;;;;;;3.69;55.05;102068.94;5010087;28;20056;-67
2022/02/27 08:08:02;;;;;;;11.40;3.53;;;;;;;3.65;55.06;102079.47;5016493;28;20053;-68
2022/02/27 08:10:30;;;;;;;12.13;3.53;;;;;;;3.72;54.75;102069.31;5014825;28;20046;-68
2022/02/27 08:12:57;;;;;;;11.85;3.65;;;;;;;3.82;54.27;102077.72;5016687;28;20037;-68
2022/02/27 08:15:25;;;;;;;13.88;3.20;;;;;;;4.02;54.20;102085.56;5016905;28;20521;-68
2022/02/27 08:17:54;;;;;;;15.02;3.45;;;;;;;3.98;54.31;102078.91;5011491;28;20046;-67
2022/02/27 08:20:22;;;;;;;15.02;3.35;;;;;;;3.92;53.96;102079.88;5020489;28;20501;-67
2022/02/27 08:22:49;;;;;;;8.93;3.05;;;;;;;3.85;54.01;102087.34;5021965;28;20038;-68
2022/02/27 08:25:18;;;;;;;12.88;2.95;;;;;;;3.83;54.09;102079.41;5016192;28;20512;-68
2022/02/27 08:27:45;;;;;;;15.13;4.03;;;;;;;3.67;54.84;102085.53;5017036;28;20058;-67
2022/02/27 08:30:12;;;;;;;10.38;3.13;;;;;;;3.92;53.49;102077.97;5026919;28;20050;-67
2022/02/27 08:32:40;;;;;;;13.05;3.28;;;;;;;3.91;53.61;102076.31;5034071;28;20745;-68
2022/02/27 08:35:08;;;;;;;11.57;3.28;;;;;;;3.97;53.24;102072.66;5029049;28;20053;-68
2022/02/27 08:37:37;;;;;;;12.05;3.22;;;;;;;4.14;53.12;102078.19;5023046;28;20057;-64
2022/02/27 08:40:05;;;;;;;10.45;3.22;;;;;;;4.26;52.73;102082.59;5015970;28;20505;-68
2022/02/27 08:42:33;;;;;;;7.90;2.97;;;;;;;4.15;52.66;102083.41;5009745;28;20038;-67
2022/02/27 08:45:00;;;;;;;9.38;3.03;;;;;;;4.05;52.63;102090.53;5009381;28;20080;-65
2022/02/27 08:47:28;;;;;;;8.98;2.90;;;;;;;4.19;51.97;102084.59;5014013;28;20397;-64
2022/02/27 08:49:55;;;;;;;11.00;2.97;;;;;;;4.32;52.20;102083.53;5015821;28;20050;-64
2022/02/27 08:52:22;;;;;;;12.98;3.53;;;;;;;4.20;51.64;102082.72;5015953;28;20118;-63
2022/02/27 08:54:50;;;;;;;8.85;3.05;;;;;;;3.97;53.00;102082.72;5014972;28;20052;-62
2022/02/27 08:57:17;;;;;;;11.20;2.72;;;;;;;4.15;52.63;102080.69;5015454;28;20054;-64
2022/02/27 08:59:44;;;;;;;9.27;3.08;;;;;;;4.37;51.26;102087.22;5015910;28;20046;-65
2022/02/27 09:02:13;;;;;;;7.95;2.97;;;;;;;4.42;51.60;102083.75;5014948;28;20397;-65
2022/02/27 09:04:40;;;;;;;8.68;3.10;;;;;;;4.36;51.13;102096.44;5016004;28;20057;-64
2022/02/27 09:07:08;;;;;;;11.27;2.70;;;;;;;4.65;50.24;102100.09;5015526;28;20061;-65
2022/02/27 09:09:35;;;;;;;12.98;3.20;;;;;;;4.34;51.33;102098.56;5014706;28;20060;-64
2022/02/27 09:12:08;;;;;;;10.27;2.75;;;;;;;4.35;51.15;102097.53;5033231;28;20042;-64
2022/02/27 09:14:38;;;;;;;10.35;3.60;;;;;;;4.53;50.97;102104.75;5006276;28;20069;-64
2022/02/27 09:17:05;;;;;;;9.10;2.90;;;;;;;4.48;51.02;102102.72;5012656;28;20050;-64
2022/02/27 09:19:33;;;;;;;12.70;3.20;;;;;;;4.44;50.91;102107.00;5013480;28;20053;-63
2022/02/27 09:22:04;;;;;;;12.85;3.30;;;;;;;4.67;50.67;102094.38;5009794;28;20045;-62
2022/02/27 09:24:32;;;;;;;9.77;2.80;;;;;;;5.07;53.08;102096.06;5004189;28;20061;-62
2022/02/27 09:26:59;;;;;;;14.27;2.85;;;;;;;5.56;53.01;102095.31;5004342;28;20058;-62
2022/02/27 09:29:26;;;;;;;8.38;3.08;;;;;;;5.64;52.27;102088.63;5015680;28;20041;-63
2022/02/27 09:31:55;;;;;;;9.23;3.03;;;;;;;5.77;50.29;102092.94;5015171;28;20057;-63
2022/02/27 09:34:22;;;;;;;10.93;3.45;;;;;;;5.82;50.04;102091.13;5015222;28;20062;-63
2022/02/27 09:36:50;;;;;;;11.82;3.30;;;;;;;5.69;49.56;102088.69;5013179;28;20061;-63
2022/02/27 09:39:22;;;;;;;13.18;3.10;;;;;;;5.74;50.02;102080.56;5016497;28;20080;-62
2022/02/27 09:41:50;;;;;;;7.43;2.95;;;;;;;5.83;49.83;102079.13;5019908;28;20053;-62
2022/02/27 09:44:18;;;;;;;16.25;3.45;;;;;;;5.68;47.23;102089.78;5025822;28;20054;-63
2022/02/27 09:46:49;;;;;;;11.20;2.97;;;;;;;5.58;47.27;102084.13;4996982;28;20049;-64
2022/02/27 09:49:16;;;;;;;7.95;2.63;;;;;;;5.25;47.53;102089.53;5010482;28;20061;-64
2022/02/27 09:51:44;;;;;;;9.95;3.53;;;;;;;5.19;47.71;102094.09;5003248;28;20041;-63
2022/02/27 09:54:14;;;;;;;8.93;3.00;;;;;;;5.22;48.18;102087.28;5014019;28;20433;-63
2022/02/27 09:56:42;;;;;;;7.47;2.90;;;;;;;5.16;47.71;102088.28;5007248;28;20050;-63
2022/02/27 09:59:09;;;;;;;9.02;3.25;;;;;;;5.19;47.85;102093.25;5009223;28;20407;-63
2022/02/27 10:01:56;;;;;;;11.68;3.50;;;;;;;5.26;47.85;102081.13;5013798;28;20060;-64
2022/02/27 10:04:23;;;;;;;8.02;3.30;;;;;;;5.32;47.48;102080.13;5019442;28;20060;-62
2022/02/27 10:06:51;;;;;;;8.98;3.65;;;;;;;5.50;47.23;102076.34;5013727;28;20405;-64
2022/02/27 10:09:23;;;;;;;8.45;3.30;;;;;;;5.37;47.90;102074.75;5012136;28;20054;-63
2022/02/27 10:12:20;;;;;;;9.32;3.17;;;;;;;5.40;47.70;102081.63;5011869;28;20061;-63
2022/02/27 10:14:59;;;;;;;10.50;3.50;;;;;;;5.57;47.52;102079.75;5012188;28;20054;-63
2022/02/27 10:17:32;;;;;;;10.73;3.80;;;;;;;5.56;47.70;102092.56;5014351;28;20069;-63
2022/02/27 10:20:11;;;;;;;9.63;3.40;;;;;;;5.62;46.84;102091.59;4963079;28;20042;-63
2022/02/27 10:22:40;;;;;;;7.50;3.17;;;;;;;5.54;47.30;102091.19;4999828;28;20054;-64
2022/02/27 10:25:20;;;;;;;10.73;3.83;;;;;;;5.73;47.14;102085.25;5010885;28;20042;-63
2022/02/27 10:27:50;;;;;;;9.55;3.50;;;;;;;5.81;46.93;102083.97;5008153;28;20058;-64
2022/02/27 10:30:22;;;;;;;11.68;3.88;;;;;;;5.96;46.97;102080.69;5014720;28;20058;-62
2022/02/27 10:32:56;;;;;;;7.72;3.30;;;;;;;5.83;46.89;102086.50;5014068;28;20050;-64
2022/02/27 10:35:43;;;;;;;11.93;4.00;;;;;;;5.93;46.74;102092.16;5002775;28;20054;-64
2022/02/27 10:38:14;;;;;;;9.85;3.28;;;;;;;6.02;46.69;102091.47;5004986;28;20045;-64
2022/02/27 10:40:46;;;;;;;10.00;3.42;;;;;;;6.02;46.57;102088.72;5014911;28;20088;-64
2022/02/27 10:43:15;;;;;;;11.65;4.10;;;;;;;6.13;46.64;102095.19;5014103;28;20537;-64
2022/02/27 10:45:43;;;;;;;7.97;3.55;;;;;;;6.02;46.80;102087.88;5008138;28;20405;-63
2022/02/27 10:48:15;;;;;;;14.77;4.10;;;;;;;6.07;46.81;102085.22;5012247;28;20049;-63
2022/02/27 10:50:44;;;;;;;10.18;3.90;;;;;;;6.21;46.61;102089.28;5012200;28;20057;-65
2022/02/27 10:53:15;;;;;;;13.18;4.78;;;;;;;6.24;46.05;102078.66;5012781;28;20045;-65
2022/02/27 10:55:42;;;;;;;8.15;3.60;;;;;;;6.32;46.16;102071.94;4993710;28;20053;-65
2022/02/27 10:58:10;;;;;;;9.38;3.60;;;;;;;6.58;45.69;102072.03;4986608;28;20066;-66
2022/02/27 11:00:38;;;;;;;11.18;3.83;;;;;;;6.32;45.75;102077.41;5014105;28;20066;-66
2022/02/27 11:03:07;;;;;;;9.57;3.80;;;;;;;6.45;46.22;102077.88;5013988;28;20049;-65
2022/02/27 11:05:36;;;;;;;10.48;4.20;;;;;;;6.33;46.00;102082.63;4997159;28;20054;-63
2022/02/27 11:08:08;;;;;;;10.52;3.55;;;;;;;6.35;46.23;102076.91;5001173;28;20065;-65
2022/02/27 11:10:38;;;;;;;11.13;4.00;;;;;;;6.60;46.43;102072.63;5012057;28;20061;-64
2022/02/27 11:13:09;;;;;;;11.65;4.63;;;;;;;6.58;45.72;102077.50;5012110;28;20042;-64
2022/02/27 11:15:37;;;;;;;13.98;4.50;;;;;;;6.72;45.73;102072.47;5012376;28;20054;-65
2022/02/27 11:18:06;;;;;;;10.30;4.78;;;;;;;6.92;45.24;102077.38;5016217;28;20042;-64
2022/02/27 11:20:34;;;;;;;14.10;4.90;;;;;;;6.93;45.55;102073.53;5008465;28;20045;-64
2022/02/27 11:23:02;;;;;;;10.70;3.60;;;;;;;6.89;45.22;102080.63;5010900;28;20052;-62
2022/02/27 11:25:29;;;;;;;9.32;3.70;;;;;;;7.03;44.53;102069.00;5017223;28;20046;-64
2022/02/27 11:28:10;;;;;;;9.40;3.88;;;;;;;7.08;44.42;102068.25;5032604;28;20068;-63
2022/02/27 11:30:45;;;;;;;10.15;3.38;;;;;;;6.95;44.58;102065.91;5019530;28;20496;-63
2022/02/27 11:33:21;;;;;;;12.30;3.83;;;;;;;7.23;44.36;102062.94;5032206;28;20045;-64